Lillooet, Canada
Current Conditions -  °F | °C
As of 12:00 PM on Wednesday 26 Nov 2014 (Local Time) from CWLY Reporting Station
Light Rain Light Rain  
Wind Chill: 34°   Ceiling: 1100
Heat Index: 34°   Visibility: 0.75mi
Dew Point: 34°   Wind: 2mph
Humidity: 100%   Direction: 140°SE
Pressure: 30.04"   Gusts: NA
Location:  50.68°N, 121.93°W
Report Text: CWLY 262000Z AUTO 14002KT 3/4SM -RA BR OVC011 01/01 A3004 RMK VIS VRB 3/8-3 PRESFR SLP181
Loading
Personal Weather Stations






























Interactive Weather Map New forecast layout! Learn more

10-Day Weather Forecast

Advertisements
Track Severe Weather on mobile